Time,TemperatureF,DewpointF,PressureIn,WindDirection,WindDirectionDegrees,WindSpeedMPH,WindSpeedGustMPH,Humidity,HourlyPrecipIn,Conditions,Clouds,dailyrainin,SoftwareType,DateUTC
2013-06-08 00:01:00,58.1,49.9,29.90,North,0,0.2,0.7,74,0.00,,,0.00,WUHU216HW,2013-06-08 05:01:00,
2013-06-08 00:06:00,58.0,49.7,29.90,North,0,0.3,0.7,74,0.00,,,0.00,WUHU216HW,2013-06-08 05:06:00,
2013-06-08 00:11:00,58.0,49.3,29.90,North,0,0.0,0.7,73,0.00,,,0.00,WUHU216HW,2013-06-08 05:11:00,
2013-06-08 00:16:00,57.8,49.1,29.91,North,0,0.2,0.4,73,0.00,,,0.00,WUHU216HW,2013-06-08 05:16:00,
2013-06-08 00:21:00,57.6,49.0,29.91,North,0,0.4,0.7,73,0.00,,,0.00,WUHU216HW,2013-06-08 05:21:00,
2013-06-08 00:26:00,57.4,48.8,29.91,North,0,0.3,0.9,73,0.00,,,0.00,WUHU216HW,2013-06-08 05:26:00,
2013-06-08 00:32:00,57.2,48.6,29.91,North,0,0.3,0.9,73,0.00,,,0.00,WUHU216HW,2013-06-08 05:32:00,
2013-06-08 00:37:00,57.1,48.4,29.91,North,357,0.6,0.9,73,0.00,,,0.00,WUHU216HW,2013-06-08 05:37:00,
2013-06-08 00:42:00,57.1,48.8,29.91,North,0,0.4,0.9,74,0.00,,,0.00,WUHU216HW,2013-06-08 05:42:00,
2013-06-08 00:47:00,56.9,49.0,29.90,North,0,0.3,0.7,75,0.00,,,0.00,WUHU216HW,2013-06-08 05:47:00,
2013-06-08 00:52:00,56.9,49.3,29.90,North,0,1.1,1.1,76,0.00,,,0.00,WUHU216HW,2013-06-08 05:52:00,
2013-06-08 00:57:00,56.7,49.1,29.90,North,0,0.3,1.1,76,0.00,,,0.00,WUHU216HW,2013-06-08 05:57:00,
2013-06-08 01:02:00,56.5,49.0,29.90,North,7,0.5,1.1,76,0.00,,,0.00,WUHU216HW,2013-06-08 06:02:00,
2013-06-08 01:07:00,56.5,49.0,29.90,North,0,0.7,1.1,76,0.00,,,0.00,WUHU216HW,2013-06-08 06:07:00,
2013-06-08 01:12:00,56.5,49.0,29.90,North,0,0.4,0.9,76,0.00,,,0.00,WUHU216HW,2013-06-08 06:12:00,
2013-06-08 01:17:00,56.3,48.5,29.90,North,0,0.3,0.4,75,0.00,,,0.00,WUHU216HW,2013-06-08 06:17:00,
2013-06-08 01:22:00,56.3,48.8,29.90,NNW,338,0.3,0.9,76,0.00,,,0.00,WUHU216HW,2013-06-08 06:22:00,
2013-06-08 01:27:00,56.2,48.6,29.90,North,352,0.4,0.9,76,0.00,,,0.00,WUHU216HW,2013-06-08 06:27:00,
2013-06-08 01:32:00,56.0,48.5,29.90,North,0,0.4,0.7,76,0.00,,,0.00,WUHU216HW,2013-06-08 06:32:00,
2013-06-08 01:37:00,55.8,48.3,29.90,North,0,0.2,0.4,76,0.00,,,0.00,WUHU216HW,2013-06-08 06:37:00,
2013-06-08 01:42:00,55.6,48.5,29.90,North,0,0.2,0.2,77,0.00,,,0.00,WUHU216HW,2013-06-08 06:42:00,
2013-06-08 01:47:00,55.6,48.5,29.90,North,0,0.7,0.7,77,0.00,,,0.00,WUHU216HW,2013-06-08 06:47:00,
2013-06-08 01:52:00,55.6,48.8,29.89,North,0,0.4,0.9,78,0.00,,,0.00,WUHU216HW,2013-06-08 06:52:00,
2013-06-08 01:57:00,55.4,48.6,29.89,North,0,0.4,0.9,78,0.00,,,0.00,WUHU216HW,2013-06-08 06:57:00,
2013-06-08 02:02:00,55.4,48.6,29.90,NNW,338,0.4,0.7,78,0.00,,,0.00,WUHU216HW,2013-06-08 07:02:00,
2013-06-08 02:07:00,55.4,48.6,29.90,NNW,338,0.3,0.4,78,0.00,,,0.00,WUHU216HW,2013-06-08 07:07:00,
2013-06-08 02:12:00,55.4,48.6,29.90,North,0,0.3,0.4,78,0.00,,,0.00,WUHU216HW,2013-06-08 07:12:00,
2013-06-08 02:17:00,55.3,48.5,29.90,North,0,0.4,0.9,78,0.00,,,0.00,WUHU216HW,2013-06-08 07:17:00,
2013-06-08 02:22:00,55.1,48.0,29.90,North,0,0.0,0.9,77,0.00,,,0.00,WUHU216HW,2013-06-08 07:22:00,
2013-06-08 02:27:00,55.1,48.0,29.90,North,0,0.0,0.2,77,0.00,,,0.00,WUHU216HW,2013-06-08 07:27:00,
2013-06-08 02:32:00,55.1,48.0,29.90,North,0,0.0,0.0,77,0.00,,,0.00,WUHU216HW,2013-06-08 07:32:00,
2013-06-08 02:37:00,54.9,47.8,29.90,North,0,0.0,0.4,77,0.00,,,0.00,WUHU216HW,2013-06-08 07:37:00,
2013-06-08 02:42:00,55.1,48.0,29.90,North,0,0.0,0.4,77,0.00,,,0.00,WUHU216HW,2013-06-08 07:42:00,
2013-06-08 02:47:00,55.1,48.0,29.90,North,0,0.0,0.0,77,0.00,,,0.00,WUHU216HW,2013-06-08 07:47:00,
2013-06-08 02:52:00,55.1,48.0,29.90,North,0,0.0,0.0,77,0.00,,,0.00,WUHU216HW,2013-06-08 07:52:00,
2013-06-08 02:57:00,55.1,48.0,29.90,North,0,0.2,0.2,77,0.00,,,0.00,WUHU216HW,2013-06-08 07:57:00,
2013-06-08 03:02:00,55.1,47.6,29.90,North,0,0.2,0.2,76,0.00,,,0.00,WUHU216HW,2013-06-08 08:02:00,
2013-06-08 03:07:00,55.1,47.6,29.90,North,0,0.2,0.4,76,0.00,,,0.00,WUHU216HW,2013-06-08 08:07:00,
2013-06-08 03:12:00,55.1,47.6,29.90,North,0,0.0,0.4,76,0.00,,,0.00,WUHU216HW,2013-06-08 08:12:00,
2013-06-08 03:17:00,54.9,47.4,29.90,North,0,0.0,0.4,76,0.00,,,0.00,WUHU216HW,2013-06-08 08:17:00,
2013-06-08 03:22:00,54.9,47.4,29.90,North,0,0.0,0.0,76,0.00,,,0.00,WUHU216HW,2013-06-08 08:22:00,
2013-06-08 03:27:00,54.7,47.3,29.90,North,0,0.0,0.0,76,0.00,,,0.00,WUHU216HW,2013-06-08 08:27:00,
2013-06-08 03:32:00,54.5,47.1,29.90,North,0,0.0,0.2,76,0.00,,,0.00,WUHU216HW,2013-06-08 08:32:00,
2013-06-08 03:37:00,54.4,46.6,29.90,North,0,0.0,0.2,75,0.00,,,0.00,WUHU216HW,2013-06-08 08:37:00,
2013-06-08 03:42:00,54.4,46.6,29.90,North,0,0.0,0.0,75,0.00,,,0.00,WUHU216HW,2013-06-08 08:42:00,
2013-06-08 03:47:00,54.2,46.5,29.90,North,0,0.0,0.0,75,0.00,,,0.00,WUHU216HW,2013-06-08 08:47:00,
2013-06-08 03:52:00,54.0,46.3,29.90,North,0,0.0,0.0,75,0.00,,,0.00,WUHU216HW,2013-06-08 08:52:00,
2013-06-08 03:57:00,53.8,46.5,29.90,North,0,0.0,0.0,76,0.00,,,0.00,WUHU216HW,2013-06-08 08:57:00,
2013-06-08 04:02:00,53.6,46.3,29.90,North,0,0.0,0.0,76,0.00,,,0.00,WUHU216HW,2013-06-08 09:02:00,
2013-06-08 04:07:00,53.6,46.3,29.90,North,0,0.0,0.0,76,0.00,,,0.00,WUHU216HW,2013-06-08 09:07:00,
2013-06-08 04:12:00,53.5,46.1,29.90,North,0,0.0,0.0,76,0.00,,,0.00,WUHU216HW,2013-06-08 09:12:00,
2013-06-08 04:17:00,53.3,45.9,29.90,North,0,0.0,0.0,76,0.00,,,0.00,WUHU216HW,2013-06-08 09:17:00,
2013-06-08 04:22:00,53.3,45.9,29.90,North,0,0.0,0.0,76,0.00,,,0.00,WUHU216HW,2013-06-08 09:22:00,
2013-06-08 04:27:00,53.1,45.7,29.90,North,0,0.0,0.0,76,0.00,,,0.00,WUHU216HW,2013-06-08 09:27:00,
2013-06-08 04:32:00,52.9,45.9,29.90,North,0,0.0,0.0,77,0.00,,,0.00,WUHU216HW,2013-06-08 09:32:00,
2013-06-08 04:37:00,52.9,45.9,29.90,North,0,0.0,0.0,77,0.00,,,0.00,WUHU216HW,2013-06-08 09:37:00,
2013-06-08 04:42:00,52.9,45.5,29.90,North,0,0.0,0.0,76,0.00,,,0.00,WUHU216HW,2013-06-08 09:42:00,
2013-06-08 04:47:00,52.7,45.4,29.90,North,0,0.0,0.0,76,0.00,,,0.00,WUHU216HW,2013-06-08 09:47:00,
2013-06-08 04:52:00,52.6,45.5,29.90,North,0,0.2,0.2,77,0.00,,,0.00,WUHU216HW,2013-06-08 09:52:00,
2013-06-08 04:57:00,52.6,45.5,29.91,North,0,0.2,0.2,77,0.00,,,0.00,WUHU216HW,2013-06-08 09:57:00,
2013-06-08 05:02:00,52.4,45.4,29.91,North,0,0.0,0.2,77,0.00,,,0.00,WUHU216HW,2013-06-08 10:02:00,
2013-06-08 05:07:00,52.2,45.5,29.91,North,0,0.0,0.0,78,0.00,,,0.00,WUHU216HW,2013-06-08 10:07:00,
2013-06-08 05:12:00,52.2,45.5,29.91,North,0,0.0,0.0,78,0.00,,,0.00,WUHU216HW,2013-06-08 10:12:00,
2013-06-08 05:17:00,52.2,45.5,29.91,North,0,0.0,0.2,78,0.00,,,0.00,WUHU216HW,2013-06-08 10:17:00,
2013-06-08 05:22:00,52.2,45.5,29.91,North,0,0.0,0.2,78,0.00,,,0.00,WUHU216HW,2013-06-08 10:22:00,
2013-06-08 05:27:00,52.2,45.5,29.91,North,0,0.0,0.2,78,0.00,,,0.00,WUHU216HW,2013-06-08 10:27:00,
2013-06-08 05:32:00,52.0,45.4,29.91,North,0,0.0,0.0,78,0.00,,,0.00,WUHU216HW,2013-06-08 10:32:00,
2013-06-08 05:37:00,52.0,45.4,29.91,North,0,0.0,0.0,78,0.00,,,0.00,WUHU216HW,2013-06-08 10:37:00,
2013-06-08 05:42:00,51.8,45.2,29.91,North,0,0.0,0.0,78,0.00,,,0.00,WUHU216HW,2013-06-08 10:42:00,
2013-06-08 05:47:00,51.8,45.2,29.91,North,0,0.0,0.0,78,0.00,,,0.00,WUHU216HW,2013-06-08 10:47:00,
2013-06-08 05:52:00,51.8,45.2,29.92,North,0,0.0,0.0,78,0.00,,,0.00,WUHU216HW,2013-06-08 10:52:00,
2013-06-08 05:57:00,51.8,45.2,29.92,North,0,0.0,0.0,78,0.00,,,0.00,WUHU216HW,2013-06-08 10:57:00,
2013-06-08 06:02:00,51.8,45.2,29.92,North,0,0.0,0.0,78,0.00,,,0.00,WUHU216HW,2013-06-08 11:02:00,
2013-06-08 06:07:00,52.0,45.4,29.92,North,0,0.0,0.0,78,0.00,,,0.00,WUHU216HW,2013-06-08 11:07:00,
2013-06-08 06:12:00,52.0,45.4,29.93,North,0,0.0,0.0,78,0.00,,,0.00,WUHU216HW,2013-06-08 11:12:00,
2013-06-08 06:17:00,52.2,45.5,29.93,North,0,0.2,0.2,78,0.00,,,0.00,WUHU216HW,2013-06-08 11:17:00,
2013-06-08 06:22:00,52.4,45.7,29.93,North,0,0.0,0.2,78,0.00,,,0.00,WUHU216HW,2013-06-08 11:22:00,
2013-06-08 06:27:00,52.7,46.1,29.93,North,0,0.4,0.4,78,0.00,,,0.00,WUHU216HW,2013-06-08 11:27:00,
2013-06-08 06:32:00,52.9,46.3,29.93,North,0,0.0,0.4,78,0.00,,,0.00,WUHU216HW,2013-06-08 11:32:00,
2013-06-08 06:37:00,53.3,46.6,29.93,North,0,0.0,0.4,78,0.00,,,0.00,WUHU216HW,2013-06-08 11:37:00,
2013-06-08 06:42:00,53.6,47.0,29.93,North,0,0.0,0.0,78,0.00,,,0.00,WUHU216HW,2013-06-08 11:42:00,
2013-06-08 06:47:00,54.0,46.3,29.93,North,0,1.1,1.1,75,0.00,,,0.00,WUHU216HW,2013-06-08 11:47:00,
2013-06-08 06:52:00,54.4,46.6,29.93,North,0,0.6,1.1,75,0.00,,,0.00,WUHU216HW,2013-06-08 11:52:00,
2013-06-08 06:57:00,54.9,47.4,29.94,North,0,1.1,1.8,76,0.00,,,0.00,WUHU216HW,2013-06-08 11:57:00,
2013-06-08 07:02:00,55.3,47.8,29.94,North,0,0.7,1.8,76,0.00,,,0.00,WUHU216HW,2013-06-08 12:02:00,
2013-06-08 07:07:00,55.8,48.0,29.94,NNW,346,0.5,1.1,75,0.00,,,0.00,WUHU216HW,2013-06-08 12:07:00,
2013-06-08 07:12:00,56.3,47.8,29.94,NNW,335,0.6,2.0,73,0.00,,,0.00,WUHU216HW,2013-06-08 12:12:00,
2013-06-08 07:17:00,56.7,48.4,29.94,North,0,0.4,2.0,74,0.00,,,0.00,WUHU216HW,2013-06-08 12:17:00,
2013-06-08 07:22:00,57.1,48.8,29.94,NNW,348,0.5,1.8,74,0.00,,,0.00,WUHU216HW,2013-06-08 12:22:00,
2013-06-08 07:27:00,57.4,49.1,29.94,NNE,28,0.7,1.8,74,0.00,,,0.00,WUHU216HW,2013-06-08 12:27:00,
2013-06-08 07:32:00,58.0,49.7,29.94,North,0,1.3,1.8,74,0.00,,,0.00,WUHU216HW,2013-06-08 12:32:00,
2013-06-08 07:37:00,58.3,48.6,29.95,NNW,346,0.6,1.8,70,0.00,,,0.00,WUHU216HW,2013-06-08 12:37:00,
2013-06-08 07:42:00,58.9,49.9,29.95,North,0,2.2,2.2,72,0.00,,,0.00,WUHU216HW,2013-06-08 12:42:00,
2013-06-08 07:47:00,59.2,49.5,29.95,NNW,338,1.3,2.2,70,0.00,,,0.00,WUHU216HW,2013-06-08 12:47:00,
2013-06-08 07:52:00,59.4,49.7,29.95,North,0,0.7,2.2,70,0.00,,,0.00,WUHU216HW,2013-06-08 12:52:00,
2013-06-08 07:57:00,59.9,49.4,29.95,North,0,0.9,1.6,68,0.00,,,0.00,WUHU216HW,2013-06-08 12:57:00,
2013-06-08 08:02:00,60.5,50.8,29.95,NNE,23,0.7,1.3,70,0.00,,,0.00,WUHU216HW,2013-06-08 13:02:00,
2013-06-08 08:07:00,60.8,49.9,29.95,North,355,0.7,1.3,67,0.00,,,0.00,WUHU216HW,2013-06-08 13:07:00,
2013-06-08 08:12:00,61.4,51.2,29.95,North,0,0.4,1.1,69,0.00,,,0.00,WUHU216HW,2013-06-08 13:12:00,
2013-06-08 08:17:00,61.9,51.3,29.95,North,0,0.4,1.8,68,0.00,,,0.00,WUHU216HW,2013-06-08 13:17:00,
2013-06-08 08:22:00,62.3,52.0,29.95,North,0,0.4,1.8,69,0.00,,,0.00,WUHU216HW,2013-06-08 13:22:00,
2013-06-08 08:27:00,62.6,51.9,29.95,North,0,0.4,0.7,68,0.00,,,0.00,WUHU216HW,2013-06-08 13:27:00,
2013-06-08 08:32:00,63.2,51.2,29.96,North,0,0.4,0.7,65,0.00,,,0.00,WUHU216HW,2013-06-08 13:32:00,
2013-06-08 08:37:00,63.7,52.6,29.96,North,0,1.6,2.5,67,0.00,,,0.00,WUHU216HW,2013-06-08 13:37:00,
2013-06-08 08:42:00,64.3,53.1,29.96,NNW,338,0.7,2.5,67,0.00,,,0.00,WUHU216HW,2013-06-08 13:42:00,
2013-06-08 08:47:00,64.6,53.4,29.96,NE,43,0.7,1.6,67,0.00,,,0.00,WUHU216HW,2013-06-08 13:47:00,
2013-06-08 08:52:00,65.3,54.6,29.96,SSW,203,1.3,1.3,68,0.00,,,0.00,WUHU216HW,2013-06-08 13:52:00,
2013-06-08 08:57:00,66.2,55.4,29.96,North,0,0.4,1.3,68,0.00,,,0.00,WUHU216HW,2013-06-08 13:57:00,
2013-06-08 09:02:00,67.1,55.8,29.96,South,175,0.3,1.3,67,0.00,,,0.00,WUHU216HW,2013-06-08 14:02:00,
2013-06-08 09:07:00,67.9,56.5,29.96,SSW,203,0.4,1.1,67,0.00,,,0.00,WUHU216HW,2013-06-08 14:07:00,
2013-06-08 09:12:00,68.8,56.5,29.96,WNW,293,0.4,0.7,65,0.00,,,0.00,WUHU216HW,2013-06-08 14:12:00,
2013-06-08 09:17:00,69.3,57.0,29.96,NNE,23,0.9,2.0,65,0.00,,,0.00,WUHU216HW,2013-06-08 14:17:00,
2013-06-08 09:22:00,70.0,57.2,29.96,South,180,0.7,2.0,64,0.00,,,0.00,WUHU216HW,2013-06-08 14:22:00,
2013-06-08 09:27:00,70.6,57.0,29.95,NNE,23,1.6,1.6,62,0.00,,,0.00,WUHU216HW,2013-06-08 14:27:00,
2013-06-08 09:32:00,70.9,56.9,29.95,East,95,0.3,2.0,61,0.00,,,0.00,WUHU216HW,2013-06-08 14:32:00,
2013-06-08 09:37:00,70.7,54.3,29.95,North,356,0.6,2.0,56,0.00,,,0.00,WUHU216HW,2013-06-08 14:37:00,
2013-06-08 09:42:00,70.6,55.6,29.95,West,275,0.6,1.3,59,0.00,,,0.00,WUHU216HW,2013-06-08 14:42:00,
2013-06-08 09:47:00,70.6,56.1,29.95,South,180,0.4,1.3,60,0.00,,,0.00,WUHU216HW,2013-06-08 14:47:00,
2013-06-08 09:52:00,70.9,55.5,29.95,North,0,0.9,0.9,58,0.00,,,0.00,WUHU216HW,2013-06-08 14:52:00,
2013-06-08 09:57:00,71.1,55.5,29.95,North,0,1.4,2.2,58,0.00,,,0.00,WUHU216HW,2013-06-08 14:57:00,
2013-06-08 10:02:00,71.5,56.9,29.95,SSW,211,0.8,2.2,60,0.00,,,0.00,WUHU216HW,2013-06-08 15:02:00,
2013-06-08 10:07:00,72.2,54.6,29.95,North,0,1.8,2.0,54,0.00,,,0.00,WUHU216HW,2013-06-08 15:07:00,
2013-06-08 10:12:00,72.2,56.1,29.94,NNW,348,0.2,2.0,57,0.00,,,0.00,WUHU216HW,2013-06-08 15:12:00,
2013-06-08 10:17:00,72.0,56.9,29.94,NNW,339,1.1,1.8,59,0.00,,,0.00,WUHU216HW,2013-06-08 15:17:00,
2013-06-08 10:22:00,72.4,55.7,29.95,SE,135,1.0,1.8,56,0.00,,,0.00,WUHU216HW,2013-06-08 15:22:00,
2013-06-08 10:27:00,72.4,53.6,29.95,North,11,1.7,2.5,52,0.00,,,0.00,WUHU216HW,2013-06-08 15:27:00,
2013-06-08 10:32:00,72.7,56.0,29.95,ENE,68,1.1,2.5,56,0.00,,,0.00,WUHU216HW,2013-06-08 15:32:00,
2013-06-08 10:37:00,72.7,54.0,29.95,NNW,342,1.6,2.7,52,0.00,,,0.00,WUHU216HW,2013-06-08 15:37:00,
2013-06-08 10:42:00,72.7,56.0,29.94,North,0,0.6,2.7,56,0.00,,,0.00,WUHU216HW,2013-06-08 15:42:00,
2013-06-08 10:47:00,73.1,55.4,29.95,North,353,1.1,2.7,54,0.00,,,0.00,WUHU216HW,2013-06-08 15:47:00,
2013-06-08 10:52:00,73.3,56.0,29.95,ENE,64,0.7,2.7,55,0.00,,,0.00,WUHU216HW,2013-06-08 15:52:00,
2013-06-08 10:57:00,73.4,56.2,29.94,NNE,23,0.9,2.0,55,0.00,,,0.00,WUHU216HW,2013-06-08 15:57:00,
2013-06-08 11:02:00,73.4,54.6,29.94,NNE,23,1.1,1.8,52,0.00,,,0.00,WUHU216HW,2013-06-08 16:02:00,
2013-06-08 11:07:00,73.8,56.5,29.94,NE,46,0.7,1.6,55,0.00,,,0.00,WUHU216HW,2013-06-08 16:07:00,
2013-06-08 11:12:00,74.2,55.9,29.95,ENE,67,0.4,1.6,53,0.00,,,0.00,WUHU216HW,2013-06-08 16:12:00,
2013-06-08 11:17:00,74.5,56.7,29.95,NNW,338,0.2,1.3,54,0.00,,,0.00,WUHU216HW,2013-06-08 16:17:00,
2013-06-08 11:22:00,74.7,55.9,29.96,NNE,13,0.8,1.8,52,0.00,,,0.00,WUHU216HW,2013-06-08 16:22:00,
2013-06-08 11:27:00,75.1,56.8,29.96,North,10,0.9,3.1,53,0.00,,,0.00,WUHU216HW,2013-06-08 16:27:00,
2013-06-08 11:32:00,75.2,56.4,29.96,ESE,112,1.2,3.1,52,0.00,,,0.00,WUHU216HW,2013-06-08 16:32:00,
2013-06-08 11:37:00,75.2,57.0,29.96,SW,225,0.7,2.5,53,0.00,,,0.00,WUHU216HW,2013-06-08 16:37:00,
2013-06-08 11:43:00,75.2,57.4,29.96,NNE,23,0.4,1.1,54,0.00,,,0.00,WUHU216HW,2013-06-08 16:43:00,
2013-06-08 11:47:00,75.8,58.4,29.96,SSW,203,2.5,2.5,55,0.00,,,0.00,WUHU216HW,2013-06-08 16:47:00,
2013-06-08 11:52:00,75.8,58.4,29.96,South,181,0.9,2.5,55,0.00,,,0.00,WUHU216HW,2013-06-08 16:52:00,
2013-06-08 11:57:00,75.8,58.4,29.97,WSW,248,1.8,2.5,55,0.00,,,0.00,WUHU216HW,2013-06-08 16:57:00,
2013-06-08 12:03:00,75.6,58.8,29.96,South,177,0.5,1.8,56,0.00,,,0.00,WUHU216HW,2013-06-08 17:03:00,
2013-06-08 12:08:00,76.0,58.6,29.96,SSW,203,1.1,1.8,55,0.00,,,0.00,WUHU216HW,2013-06-08 17:08:00,
2013-06-08 12:13:00,76.3,58.4,29.96,ENE,77,0.8,2.0,54,0.00,,,0.00,WUHU216HW,2013-06-08 17:13:00,
2013-06-08 12:18:00,76.7,57.8,29.95,North,0,1.3,2.0,52,0.00,,,0.00,WUHU216HW,2013-06-08 17:18:00,
2013-06-08 12:23:00,76.7,58.2,29.95,SSW,203,1.6,1.6,53,0.00,,,0.00,WUHU216HW,2013-06-08 17:23:00,
2013-06-08 12:27:00,76.7,58.8,29.95,SSW,197,0.9,2.5,54,0.00,,,0.00,WUHU216HW,2013-06-08 17:27:00,
2013-06-08 12:32:00,77.0,59.6,29.95,South,176,1.3,2.7,55,0.00,,,0.00,WUHU216HW,2013-06-08 17:32:00,
2013-06-08 12:37:00,77.4,60.0,29.95,NW,313,0.7,2.7,55,0.00,,,0.00,WUHU216HW,2013-06-08 17:37:00,
2013-06-08 12:42:00,78.1,60.1,29.95,SSE,166,1.6,2.5,54,0.00,,,0.00,WUHU216HW,2013-06-08 17:42:00,
2013-06-08 12:47:00,78.1,59.6,29.95,SSW,208,0.9,2.5,53,0.00,,,0.00,WUHU216HW,2013-06-08 17:47:00,
2013-06-08 12:52:00,77.8,58.8,29.94,East,90,1.1,2.0,52,0.00,,,0.00,WUHU216HW,2013-06-08 17:52:00,
2013-06-08 12:57:00,77.0,58.1,29.94,SE,135,1.8,1.8,52,0.00,,,0.00,WUHU216HW,2013-06-08 17:57:00,
2013-06-08 13:02:00,76.9,57.9,29.95,NE,54,1.1,3.4,52,0.00,,,0.00,WUHU216HW,2013-06-08 18:02:00,
2013-06-08 13:07:00,76.9,55.1,29.94,North,0,3.1,3.4,47,0.00,,,0.00,WUHU216HW,2013-06-08 18:07:00,
2013-06-08 13:12:00,77.0,55.8,29.94,NNW,341,1.2,3.1,48,0.00,,,0.00,WUHU216HW,2013-06-08 18:12:00,
2013-06-08 13:17:00,77.0,55.8,29.94,NNE,23,0.9,3.1,48,0.00,,,0.00,WUHU216HW,2013-06-08 18:17:00,
2013-06-08 13:22:00,77.0,57.6,29.94,East,90,2.7,2.7,51,0.00,,,0.00,WUHU216HW,2013-06-08 18:22:00,
2013-06-08 13:28:00,77.2,58.2,29.94,ENE,67,0.7,3.6,52,0.00,,,0.00,WUHU216HW,2013-06-08 18:28:00,
2013-06-08 13:33:00,77.8,59.2,29.94,South,186,1.1,3.6,53,0.00,,,0.00,WUHU216HW,2013-06-08 18:33:00,
2013-06-08 13:38:00,78.7,60.1,29.94,SSW,203,3.0,4.3,53,0.00,,,0.00,WUHU216HW,2013-06-08 18:38:00,
2013-06-08 13:43:00,79.2,59.5,29.94,South,190,2.5,4.3,51,0.00,,,0.00,WUHU216HW,2013-06-08 18:43:00,
2013-06-08 13:48:00,79.6,59.9,29.94,South,180,2.9,3.8,51,0.00,,,0.00,WUHU216HW,2013-06-08 18:48:00,
2013-06-08 13:53:00,79.6,59.3,29.94,WNW,292,1.6,3.8,50,0.00,,,0.00,WUHU216HW,2013-06-08 18:53:00,
2013-06-08 13:58:00,79.6,59.3,29.94,SSW,197,2.8,4.7,50,0.00,,,0.00,WUHU216HW,2013-06-08 18:58:00,
2013-06-08 14:03:00,79.6,59.9,29.94,SSW,193,1.1,4.7,51,0.00,,,0.00,WUHU216HW,2013-06-08 19:03:00,
2013-06-08 14:08:00,78.8,56.9,29.94,North,9,1.9,3.1,47,0.00,,,0.00,WUHU216HW,2013-06-08 19:08:00,
2013-06-08 14:13:00,78.7,58.5,29.94,SSW,203,1.1,3.1,50,0.00,,,0.00,WUHU216HW,2013-06-08 19:13:00,
2013-06-08 14:18:00,79.0,59.4,29.94,WNW,292,1.3,2.0,51,0.00,,,0.00,WUHU216HW,2013-06-08 19:18:00,
2013-06-08 14:23:00,79.6,59.9,29.93,SSW,203,4.3,4.3,51,0.00,,,0.00,WUHU216HW,2013-06-08 19:23:00,
2013-06-08 14:28:00,79.9,60.2,29.93,SSW,210,1.6,4.3,51,0.00,,,0.00,WUHU216HW,2013-06-08 19:28:00,
2013-06-08 14:33:00,80.1,60.3,29.93,SSW,200,1.8,5.1,51,0.00,,,0.00,WUHU216HW,2013-06-08 19:33:00,
2013-06-08 14:38:00,80.3,59.9,29.93,South,171,1.4,5.1,50,0.00,,,0.00,WUHU216HW,2013-06-08 19:38:00,
2013-06-08 14:43:00,79.9,58.4,29.93,SE,146,2.3,4.9,48,0.00,,,0.00,WUHU216HW,2013-06-08 19:43:00,
2013-06-08 14:48:00,79.9,57.8,29.93,North,0,2.7,4.9,47,0.00,,,0.00,WUHU216HW,2013-06-08 19:48:00,
2013-06-08 14:53:00,79.7,57.7,29.93,North,0,1.1,2.9,47,0.00,,,0.00,WUHU216HW,2013-06-08 19:53:00,
2013-06-08 14:58:00,79.9,58.4,29.93,SSW,202,3.0,4.9,48,0.00,,,0.00,WUHU216HW,2013-06-08 19:58:00,
2013-06-08 15:03:00,79.6,58.2,29.93,SSE,158,4.0,4.9,48,0.00,,,0.00,WUHU216HW,2013-06-08 20:03:00,
2013-06-08 15:08:00,79.9,59.0,29.93,South,180,2.2,4.0,49,0.00,,,0.00,WUHU216HW,2013-06-08 20:08:00,
2013-06-08 15:13:00,80.3,59.4,29.93,ESE,118,0.5,4.0,49,0.00,,,0.00,WUHU216HW,2013-06-08 20:13:00,
2013-06-08 15:18:00,80.3,58.8,29.93,SSW,203,3.1,3.4,48,0.00,,,0.00,WUHU216HW,2013-06-08 20:18:00,
2013-06-08 15:23:00,80.8,59.9,29.93,South,190,0.9,3.1,49,0.00,,,0.00,WUHU216HW,2013-06-08 20:23:00,
2013-06-08 15:28:00,81.2,60.2,29.93,SSW,198,1.7,3.1,49,0.00,,,0.00,WUHU216HW,2013-06-08 20:28:00,
2013-06-08 15:33:00,81.2,58.3,29.93,NNW,341,1.2,3.1,46,0.00,,,0.00,WUHU216HW,2013-06-08 20:33:00,
2013-06-08 15:38:00,81.0,58.1,29.93,ENE,68,2.5,2.5,46,0.00,,,0.00,WUHU216HW,2013-06-08 20:38:00,
2013-06-08 15:43:00,81.0,58.8,29.93,SSW,201,2.8,4.0,47,0.00,,,0.00,WUHU216HW,2013-06-08 20:43:00,
2013-06-08 15:48:00,81.0,58.8,29.93,South,179,1.3,4.0,47,0.00,,,0.00,WUHU216HW,2013-06-08 20:48:00,
2013-06-08 15:53:00,80.5,57.7,29.93,West,270,2.5,3.1,46,0.00,,,0.00,WUHU216HW,2013-06-08 20:53:00,
2013-06-08 15:58:00,79.9,57.3,29.93,East,89,0.3,2.7,46,0.00,,,0.00,WUHU216HW,2013-06-08 20:58:00,
2013-06-08 16:03:00,79.2,56.0,29.93,SW,225,1.1,2.7,45,0.00,,,0.00,WUHU216HW,2013-06-08 21:03:00,
2013-06-08 16:08:00,79.0,56.4,29.93,SSW,203,1.1,2.5,46,0.00,,,0.00,WUHU216HW,2013-06-08 21:08:00,
2013-06-08 16:13:00,79.0,57.0,29.93,SW,214,1.2,2.9,47,0.00,,,0.00,WUHU216HW,2013-06-08 21:13:00,
2013-06-08 16:18:00,79.4,57.3,29.93,WNW,293,0.2,2.9,47,0.00,,,0.00,WUHU216HW,2013-06-08 21:18:00,
2013-06-08 16:23:00,79.6,57.5,29.93,South,173,1.6,2.5,47,0.00,,,0.00,WUHU216HW,2013-06-08 21:23:00,
2013-06-08 16:28:00,79.6,56.9,29.93,WSW,240,1.1,3.6,46,0.00,,,0.00,WUHU216HW,2013-06-08 21:28:00,
2013-06-08 16:33:00,79.6,56.9,29.93,South,183,1.3,3.6,46,0.00,,,0.00,WUHU216HW,2013-06-08 21:33:00,
2013-06-08 16:38:00,79.2,56.5,29.93,SSE,152,1.6,2.7,46,0.00,,,0.00,WUHU216HW,2013-06-08 21:38:00,
2013-06-08 16:43:00,79.2,57.2,29.93,SSE,158,1.1,3.1,47,0.00,,,0.00,WUHU216HW,2013-06-08 21:43:00,
2013-06-08 16:48:00,79.2,56.5,29.93,SW,219,2.1,3.4,46,0.00,,,0.00,WUHU216HW,2013-06-08 21:48:00,
2013-06-08 16:53:00,79.6,56.9,29.93,West,279,0.8,3.4,46,0.00,,,0.00,WUHU216HW,2013-06-08 21:53:00,
2013-06-08 16:58:00,79.7,56.4,29.93,SSW,203,2.5,3.4,45,0.00,,,0.00,WUHU216HW,2013-06-08 21:58:00,
2013-06-08 17:03:00,79.6,56.3,29.93,SSE,156,1.0,3.4,45,0.00,,,0.00,WUHU216HW,2013-06-08 22:03:00,
2013-06-08 17:08:00,79.2,56.0,29.93,SE,135,0.9,2.5,45,0.00,,,0.00,WUHU216HW,2013-06-08 22:08:00,
2013-06-08 17:13:00,78.8,56.3,29.93,SSE,162,0.7,2.9,46,0.00,,,0.00,WUHU216HW,2013-06-08 22:13:00,
2013-06-08 17:18:00,78.5,55.9,29.93,SSW,195,1.0,2.9,46,0.00,,,0.00,WUHU216HW,2013-06-08 22:18:00,
2013-06-08 17:23:00,78.3,55.7,29.93,SSE,163,0.8,2.0,46,0.00,,,0.00,WUHU216HW,2013-06-08 22:23:00,
2013-06-08 17:28:00,78.1,55.6,29.93,South,179,0.8,2.0,46,0.00,,,0.00,WUHU216HW,2013-06-08 22:28:00,
2013-06-08 17:33:00,77.9,55.5,29.94,ENE,68,0.9,3.1,46,0.00,,,0.00,WUHU216HW,2013-06-08 22:33:00,
2013-06-08 17:38:00,77.8,55.9,29.93,SE,143,1.5,3.4,47,0.00,,,0.00,WUHU216HW,2013-06-08 22:38:00,
2013-06-08 17:43:00,78.5,57.8,29.93,SSW,199,0.6,3.4,49,0.00,,,0.00,WUHU216HW,2013-06-08 22:43:00,
2013-06-08 17:48:00,79.9,58.4,29.93,South,180,0.9,1.8,48,0.00,,,0.00,WUHU216HW,2013-06-08 22:48:00,
2013-06-08 17:53:00,80.5,58.3,29.93,South,180,0.7,2.0,47,0.00,,,0.00,WUHU216HW,2013-06-08 22:53:00,
2013-06-08 17:58:00,81.7,60.0,29.93,SSW,203,0.5,2.5,48,0.00,,,0.00,WUHU216HW,2013-06-08 22:58:00,
2013-06-08 18:03:00,83.2,60.8,29.93,SE,136,1.1,2.5,47,0.00,,,0.00,WUHU216HW,2013-06-08 23:03:00,
2013-06-08 18:08:00,83.3,60.3,29.93,SW,225,1.3,2.0,46,0.00,,,0.00,WUHU216HW,2013-06-08 23:08:00,
2013-06-08 18:13:00,82.8,59.2,29.94,South,185,1.5,2.9,45,0.00,,,0.00,WUHU216HW,2013-06-08 23:13:00,
2013-06-08 18:18:00,82.1,58.5,29.94,South,189,2.1,2.9,45,0.00,,,0.00,WUHU216HW,2013-06-08 23:18:00,
2013-06-08 18:23:00,81.0,58.1,29.94,SSW,199,1.6,3.1,46,0.00,,,0.00,WUHU216HW,2013-06-08 23:23:00,
2013-06-08 18:28:00,80.5,57.7,29.94,SW,217,1.0,3.1,46,0.00,,,0.00,WUHU216HW,2013-06-08 23:28:00,
2013-06-08 18:33:00,79.9,57.3,29.94,SW,218,1.7,2.5,46,0.00,,,0.00,WUHU216HW,2013-06-08 23:33:00,
2013-06-08 18:38:00,79.6,57.5,29.94,SSW,203,1.8,3.6,47,0.00,,,0.00,WUHU216HW,2013-06-08 23:38:00,
2013-06-08 18:43:00,79.2,57.2,29.94,SSW,199,2.2,3.6,47,0.00,,,0.00,WUHU216HW,2013-06-08 23:43:00,
2013-06-08 18:48:00,78.8,56.9,29.94,SW,225,0.9,3.1,47,0.00,,,0.00,WUHU216HW,2013-06-08 23:48:00,
2013-06-08 18:53:00,78.8,57.4,29.94,East,90,0.4,1.8,48,0.00,,,0.00,WUHU216HW,2013-06-08 23:53:00,
2013-06-08 18:58:00,78.8,57.4,29.94,South,191,0.4,1.8,48,0.00,,,0.00,WUHU216HW,2013-06-08 23:58:00,
2013-06-08 19:03:00,79.4,58.0,29.94,South,180,0.9,1.3,48,0.00,,,0.00,WUHU216HW,2013-06-09 00:03:00,
2013-06-08 19:08:00,80.3,58.8,29.94,SSW,213,1.0,1.8,48,0.00,,,0.00,WUHU216HW,2013-06-09 00:08:00,
2013-06-08 19:13:00,81.0,58.8,29.94,SE,135,0.5,1.8,47,0.00,,,0.00,WUHU216HW,2013-06-09 00:13:00,
2013-06-08 19:18:00,80.8,58.1,29.94,SSW,203,1.1,1.6,46,0.00,,,0.00,WUHU216HW,2013-06-09 00:18:00,
2013-06-08 19:23:00,80.6,58.5,29.94,SSW,203,0.9,1.6,47,0.00,,,0.00,WUHU216HW,2013-06-09 00:23:00,
2013-06-08 19:28:00,80.3,57.5,29.94,South,180,0.7,1.6,46,0.00,,,0.00,WUHU216HW,2013-06-09 00:28:00,
2013-06-08 19:33:00,79.7,57.7,29.94,SSW,203,0.4,1.3,47,0.00,,,0.00,WUHU216HW,2013-06-09 00:33:00,
2013-06-08 19:38:00,79.2,57.2,29.94,SSE,158,0.4,0.7,47,0.00,,,0.00,WUHU216HW,2013-06-09 00:38:00,
2013-06-08 19:43:00,78.8,57.4,29.94,SSE,158,0.2,0.4,48,0.00,,,0.00,WUHU216HW,2013-06-09 00:43:00,
2013-06-08 19:48:00,78.1,57.4,29.94,SSE,158,0.4,0.4,49,0.00,,,0.00,WUHU216HW,2013-06-09 00:48:00,
2013-06-08 19:53:00,77.8,57.1,29.94,SSE,158,0.0,0.7,49,0.00,,,0.00,WUHU216HW,2013-06-09 00:53:00,
2013-06-08 19:58:00,77.0,57.1,29.94,SSE,158,0.0,0.7,50,0.00,,,0.00,WUHU216HW,2013-06-09 00:58:00,
2013-06-08 20:03:00,76.7,57.2,29.94,SE,135,0.4,0.9,51,0.00,,,0.00,WUHU216HW,2013-06-09 01:03:00,
2013-06-08 20:08:00,76.1,57.2,29.94,SSE,158,0.0,0.9,52,0.00,,,0.00,WUHU216HW,2013-06-09 01:08:00,
2013-06-08 20:13:00,75.4,57.2,29.94,SSE,158,0.0,0.0,53,0.00,,,0.00,WUHU216HW,2013-06-09 01:13:00,
2013-06-08 20:18:00,74.9,57.1,29.94,SSE,158,0.0,0.0,54,0.00,,,0.00,WUHU216HW,2013-06-09 01:18:00,
2013-06-08 20:23:00,74.2,56.9,29.95,SSE,158,0.0,0.0,55,0.00,,,0.00,WUHU216HW,2013-06-09 01:23:00,
2013-06-08 20:28:00,73.4,56.7,29.95,SSE,158,0.0,0.0,56,0.00,,,0.00,WUHU216HW,2013-06-09 01:28:00,
2013-06-08 20:33:00,72.9,56.7,29.95,SSE,158,0.0,0.0,57,0.00,,,0.00,WUHU216HW,2013-06-09 01:33:00,
2013-06-08 20:38:00,72.2,56.5,29.95,SE,135,0.0,0.0,58,0.00,,,0.00,WUHU216HW,2013-06-09 01:38:00,
2013-06-08 20:43:00,71.6,56.1,29.95,SE,135,0.4,0.4,58,0.00,,,0.00,WUHU216HW,2013-06-09 01:43:00,
2013-06-08 20:48:00,71.5,56.4,29.95,SE,135,0.0,0.4,59,0.00,,,0.00,WUHU216HW,2013-06-09 01:48:00,
2013-06-08 20:53:00,71.3,56.3,29.95,SE,135,0.0,0.0,59,0.00,,,0.00,WUHU216HW,2013-06-09 01:53:00,
2013-06-08 20:58:00,70.9,56.4,29.95,SE,135,0.0,0.0,60,0.00,,,0.00,WUHU216HW,2013-06-09 01:58:00,
2013-06-08 21:03:00,70.6,55.6,29.96,SE,135,0.0,0.0,59,0.00,,,0.00,WUHU216HW,2013-06-09 02:03:00,
2013-06-08 21:08:00,70.2,55.8,29.96,SE,135,0.0,0.0,60,0.00,,,0.00,WUHU216HW,2013-06-09 02:08:00,
2013-06-08 21:13:00,70.0,56.0,29.96,SE,135,0.0,0.0,61,0.00,,,0.00,WUHU216HW,2013-06-09 02:13:00,
2013-06-08 21:18:00,69.8,55.9,29.96,SE,135,0.0,0.0,61,0.00,,,0.00,WUHU216HW,2013-06-09 02:18:00,
2013-06-08 21:23:00,69.5,55.9,29.96,SE,135,0.0,0.0,62,0.00,,,0.00,WUHU216HW,2013-06-09 02:23:00,
2013-06-08 21:28:00,69.1,56.0,29.97,SE,135,0.0,0.0,63,0.00,,,0.00,WUHU216HW,2013-06-09 02:28:00,
2013-06-08 21:33:00,68.8,55.6,29.96,SE,135,0.0,0.0,63,0.00,,,0.00,WUHU216HW,2013-06-09 02:33:00,
2013-06-08 21:38:00,68.6,55.4,29.97,SE,135,0.0,0.0,63,0.00,,,0.00,WUHU216HW,2013-06-09 02:38:00,
2013-06-08 21:43:00,68.4,55.7,29.97,SE,135,0.0,0.0,64,0.00,,,0.00,WUHU216HW,2013-06-09 02:43:00,
2013-06-08 21:48:00,68.0,55.4,29.97,SE,135,0.0,0.0,64,0.00,,,0.00,WUHU216HW,2013-06-09 02:48:00,
2013-06-08 21:53:00,67.9,55.6,29.97,SE,135,0.0,0.0,65,0.00,,,0.00,WUHU216HW,2013-06-09 02:53:00,
2013-06-08 21:58:00,67.5,55.3,29.97,SE,135,0.0,0.0,65,0.00,,,0.00,WUHU216HW,2013-06-09 02:58:00,
2013-06-08 22:03:00,67.3,55.5,29.97,SE,135,0.0,0.0,66,0.00,,,0.00,WUHU216HW,2013-06-09 03:03:00,
2013-06-08 22:08:00,67.1,55.4,29.97,SE,135,0.0,0.0,66,0.00,,,0.00,WUHU216HW,2013-06-09 03:08:00,
2013-06-08 22:13:00,66.8,55.4,29.97,SE,135,0.0,0.0,67,0.00,,,0.00,WUHU216HW,2013-06-09 03:13:00,
2013-06-08 22:18:00,66.6,55.3,29.97,SE,135,0.0,0.0,67,0.00,,,0.00,WUHU216HW,2013-06-09 03:18:00,
2013-06-08 22:23:00,66.4,55.1,29.97,SE,135,0.0,0.0,67,0.00,,,0.00,WUHU216HW,2013-06-09 03:23:00,
2013-06-08 22:28:00,66.2,55.4,29.97,SE,135,0.0,0.0,68,0.00,,,0.00,WUHU216HW,2013-06-09 03:28:00,
2013-06-08 22:33:00,66.2,55.4,29.97,SE,135,0.0,0.0,68,0.00,,,0.00,WUHU216HW,2013-06-09 03:33:00,
2013-06-08 22:38:00,66.1,55.2,29.97,SE,135,0.0,0.0,68,0.00,,,0.00,WUHU216HW,2013-06-09 03:38:00,
2013-06-08 22:43:00,65.9,55.5,29.97,SE,135,0.0,0.0,69,0.00,,,0.00,WUHU216HW,2013-06-09 03:43:00,
2013-06-08 22:48:00,65.7,55.3,29.97,SE,135,0.0,0.0,69,0.00,,,0.00,WUHU216HW,2013-06-09 03:48:00,
2013-06-08 22:53:00,65.5,55.1,29.97,SE,135,0.0,0.0,69,0.00,,,0.00,WUHU216HW,2013-06-09 03:53:00,
2013-06-08 22:58:00,65.5,55.5,29.97,SE,135,0.0,0.0,70,0.00,,,0.00,WUHU216HW,2013-06-09 03:58:00,
2013-06-08 23:01:00,65.5,55.5,29.97,SE,135,0.0,0.0,70,0.00,,,0.00,WUHU216HW,2013-06-09 04:01:00,
2013-06-08 23:06:00,65.3,55.4,29.97,SE,135,0.0,0.0,70,0.00,,,0.00,WUHU216HW,2013-06-09 04:06:00,
2013-06-08 23:11:00,65.2,55.2,29.98,SE,135,0.0,0.0,70,0.00,,,0.00,WUHU216HW,2013-06-09 04:11:00,
2013-06-08 23:16:00,65.2,55.5,29.97,SE,135,0.0,0.0,71,0.00,,,0.00,WUHU216HW,2013-06-09 04:16:00,
2013-06-08 23:21:00,65.2,55.5,29.97,SE,135,0.0,0.0,71,0.00,,,0.00,WUHU216HW,2013-06-09 04:21:00,
2013-06-08 23:26:00,65.0,55.8,29.97,SE,135,0.0,0.0,72,0.00,,,0.00,WUHU216HW,2013-06-09 04:26:00,
2013-06-08 23:31:00,65.0,55.8,29.98,SE,135,0.0,0.0,72,0.00,,,0.00,WUHU216HW,2013-06-09 04:31:00,
2013-06-08 23:36:00,65.0,55.8,29.98,SE,135,0.0,0.0,72,0.00,,,0.00,WUHU216HW,2013-06-09 04:36:00,
2013-06-08 23:41:00,64.8,55.6,29.98,SE,135,0.0,0.0,72,0.00,,,0.00,WUHU216HW,2013-06-09 04:41:00,
2013-06-08 23:46:00,64.4,55.6,29.98,SE,135,0.0,0.0,73,0.00,,,0.00,WUHU216HW,2013-06-09 04:46:00,
2013-06-08 23:51:00,64.3,55.4,29.98,SE,135,0.0,0.0,73,0.00,,,0.00,WUHU216HW,2013-06-09 04:51:00,
2013-06-08 23:56:00,64.3,55.8,29.98,SE,135,0.0,0.0,74,0.00,,,0.00,WUHU216HW,2013-06-09 04:56:00,